Time;durP1;ratioP1;P1;durP2;ratioP2;P2;SDS_P1;SDS_P2;PMS_P1;PMS_P2;Temp;Humidity;BMP_temperature;BMP_pressure;BME280_temperature;BME280_humidity;BME280_pressure;Samples;Min_cycle;Max_cycle;Signal;HPM_P1;HPM_P2
2021/12/05 00:18:14;;;;;;;;;;;;;;;2.11;94.34;148198.02;1684821;84;21229;-59
2021/12/05 00:22:53;;;;;;;37.63;18.30;;;;;;;2.11;94.50;148199.28;1680769;84;21560;-57
2021/12/05 00:25:26;;;;;;;34.08;17.90;;;;;;;2.13;94.53;148203.17;1677913;83;21107;-58
2021/12/05 00:33:34;;;;;;;40.43;16.85;;;;;;;2.14;94.15;148207.02;1679646;83;21588;-59
2021/12/05 00:36:38;;;;;;;40.15;17.52;;;;;;;2.09;94.01;148194.13;1679649;84;21454;-63
2021/12/05 00:41:29;;;;;;;31.90;16.62;;;;;;;2.02;94.28;148174.78;1682228;83;21044;-59
2021/12/05 00:46:27;;;;;;;;;;;;;;;2.11;94.44;148198.02;1680148;84;21492;-58
2021/12/05 00:54:53;;;;;;;37.80;17.30;;;;;;;2.22;94.70;148226.36;1677229;84;21183;-61
2021/12/05 00:59:15;;;;;;;26.85;16.02;;;;;;;2.41;94.79;148272.78;1678470;84;21148;-62
2021/12/05 01:04:28;;;;;;;34.35;18.32;;;;;;;2.45;94.44;148283.09;1679177;84;21155;-58
2021/12/05 01:09:37;;;;;;;33.60;18.07;;;;;;;2.46;94.58;148285.67;1676542;84;21004;-58
2021/12/05 01:12:35;;;;;;;33.05;17.48;;;;;;;2.46;94.51;148284.41;1676098;84;21084;-60
2021/12/05 01:17:20;;;;;;;34.48;19.40;;;;;;;2.43;94.60;148279.25;1679346;84;21020;-59
2021/12/05 01:19:46;;;;;;;36.13;19.17;;;;;;;2.47;94.77;148288.25;1678222;84;20968;-60
2021/12/05 01:22:16;;;;;;;37.58;19.27;;;;;;;2.56;95.00;148311.48;1678606;84;21122;-59
2021/12/05 01:25:15;;;;;;;35.70;18.92;;;;;;;2.58;94.79;148316.64;1679702;84;21023;-58
2021/12/05 01:27:59;;;;;;;41.83;20.50;;;;;;;2.61;94.59;148321.80;1677200;84;21527;-59
2021/12/05 01:30:30;;;;;;;32.17;17.87;;;;;;;2.61;94.50;148321.80;1676002;84;21133;-58
2021/12/05 01:33:36;;;;;;;35.17;18.85;;;;;;;2.60;94.40;148319.22;1677400;84;21065;-58
2021/12/05 02:31:47;;;;;;;39.18;20.88;;;;;;;2.58;96.57;148315.33;1680460;84;21074;-58
2021/12/05 02:39:32;;;;;;;;;;;;;;;2.61;96.57;148321.80;1667737;84;21039;-57
2021/12/05 02:41:51;;;;;;;37.15;18.87;;;;;;;2.60;96.67;148319.22;1699160;82;21129;-59
2021/12/05 02:44:21;;;;;;;38.55;19.87;;;;;;;2.61;96.88;148323.06;1659295;85;21066;-59
2021/12/05 02:47:02;;;;;;;41.60;22.02;;;;;;;2.66;97.03;148334.69;1667499;84;21076;-58
2021/12/05 02:49:29;;;;;;;39.33;19.37;;;;;;;2.70;97.21;148345.00;1665474;84;21572;-59
2021/12/05 02:52:00;;;;;;;40.15;21.48;;;;;;;2.76;97.29;148359.19;1666155;84;21110;-58
2021/12/05 02:54:26;;;;;;;41.05;18.87;;;;;;;2.80;97.22;148370.81;1681983;84;22885;-58
2021/12/05 02:56:53;;;;;;;36.95;19.07;;;;;;;2.84;97.07;148381.12;1681684;84;21486;-58
2021/12/05 02:59:23;;;;;;;32.23;17.50;;;;;;;2.86;96.83;148386.28;1682894;84;21532;-58
2021/12/05 03:01:57;;;;;;;30.60;17.73;;;;;;;2.88;96.58;148388.86;1704100;82;21042;-58
2021/12/05 03:04:24;;;;;;;34.08;19.52;;;;;;;2.89;96.39;148391.44;1677920;84;21068;-58
2021/12/05 03:06:56;;;;;;;30.37;18.12;;;;;;;2.90;96.24;148394.02;1683160;84;21483;-59
2021/12/05 03:09:21;;;;;;;28.92;15.72;;;;;;;2.90;96.12;148394.02;1703670;83;21122;-58
2021/12/05 03:11:49;;;;;;;29.40;14.73;;;;;;;2.90;95.93;148394.02;1664884;84;21612;-58
2021/12/05 03:14:16;;;;;;;27.50;15.23;;;;;;;2.90;95.81;148394.02;1660593;84;21099;-58
2021/12/05 03:16:44;;;;;;;29.95;15.32;;;;;;;2.91;95.81;148396.59;1666362;84;21087;-58
2021/12/05 03:19:11;;;;;;;30.10;16.60;;;;;;;2.94;95.87;148404.33;1679469;84;21839;-58
2021/12/05 03:21:39;;;;;;;28.77;15.32;;;;;;;2.96;95.81;148410.80;1696521;83;21110;-58
2021/12/05 03:24:06;;;;;;;31.70;16.45;;;;;;;2.99;95.89;148417.27;1680575;84;21031;-58
2021/12/05 03:26:37;;;;;;;35.40;18.25;;;;;;;3.03;95.76;148426.27;1682267;84;21067;-60
2021/12/05 03:29:06;;;;;;;41.90;18.52;;;;;;;3.04;95.66;148428.84;1682382;84;21064;-59
2021/12/05 03:31:33;;;;;;;30.30;17.57;;;;;;;3.04;95.47;148430.16;1704168;83;21608;-59
2021/12/05 03:34:01;;;;;;;33.00;17.60;;;;;;;3.02;95.43;148425.00;1703170;83;21063;-60
2021/12/05 03:36:29;;;;;;;33.30;19.95;;;;;;;3.04;95.57;148428.84;1703366;82;22406;-58
2021/12/05 03:38:56;;;;;;;29.98;16.05;;;;;;;3.07;95.59;148436.58;1704074;82;21129;-59
2021/12/05 03:41:24;;;;;;;29.10;16.80;;;;;;;3.09;95.59;148441.73;1666041;84;21106;-58
2021/12/05 03:43:53;;;;;;;49.03;19.42;;;;;;;3.14;95.60;148454.67;1683507;84;21089;-58
2021/12/05 03:46:22;;;;;;;63.30;21.02;;;;;;;3.14;95.37;148455.94;1680815;83;21106;-58
2021/12/05 03:48:52;;;;;;;55.80;20.15;;;;;;;3.14;95.27;148455.94;1679980;83;21076;-59
2021/12/05 03:51:21;;;;;;;39.55;20.52;;;;;;;3.14;95.20;148455.94;1679932;84;21084;-59
2021/12/05 03:53:49;;;;;;;45.83;19.60;;;;;;;3.11;95.17;148448.20;1681675;83;21057;-59
2021/12/05 03:56:17;;;;;;;49.15;21.00;;;;;;;3.05;95.11;148431.42;1679176;83;21827;-59
2021/12/05 03:58:45;;;;;;;39.80;20.23;;;;;;;2.95;95.08;148406.91;1681421;83;21892;-59
2021/12/05 04:01:12;;;;;;;44.93;21.70;;;;;;;2.88;95.37;148390.17;1679598;83;21036;-60
2021/12/05 04:03:42;;;;;;;39.30;19.17;;;;;;;2.84;95.66;148381.12;1679631;83;21035;-60
2021/12/05 04:06:10;;;;;;;39.40;19.85;;;;;;;2.91;96.13;148397.91;1680616;84;21038;-59
2021/12/05 04:08:39;;;;;;;43.00;21.12;;;;;;;2.97;96.31;148413.37;1678705;84;21123;-60
2021/12/05 04:11:13;;;;;;;36.28;19.42;;;;;;;3.05;96.27;148432.73;1679126;83;21087;-62
2021/12/05 04:13:42;;;;;;;48.10;20.52;;;;;;;3.11;96.27;148446.94;1679129;83;20985;-60
2021/12/05 04:16:10;;;;;;;61.42;22.70;;;;;;;3.13;96.05;148453.36;1682078;84;21203;-61
2021/12/05 04:18:37;;;;;;;47.88;21.45;;;;;;;3.15;95.82;148457.25;1679173;83;21166;-62
2021/12/05 04:21:03;;;;;;;45.73;21.10;;;;;;;3.20;95.80;148468.83;1678088;83;21619;-61
2021/12/05 04:23:30;;;;;;;38.53;19.25;;;;;;;3.24;95.63;148479.19;1699618;82;21059;-61
2021/12/05 04:25:57;;;;;;;42.08;21.45;;;;;;;3.23;95.11;148477.87;1683086;84;21096;-62
2021/12/05 04:28:25;;;;;;;51.30;26.02;;;;;;;3.18;94.74;148463.67;1680612;84;21114;-62
2021/12/05 04:30:52;;;;;;;49.50;23.80;;;;;;;3.10;94.62;148445.62;1680867;84;21080;-60
2021/12/05 04:33:21;;;;;;;44.23;20.70;;;;;;;3.09;94.82;148443.05;1679495;84;21232;-62
2021/12/05 04:35:48;;;;;;;46.10;21.00;;;;;;;3.10;94.70;148445.62;1682313;84;21114;-62
2021/12/05 04:38:15;;;;;;;44.42;21.02;;;;;;;3.06;94.43;148434.00;1660006;84;21284;-61
2021/12/05 04:40:44;;;;;;;40.12;20.40;;;;;;;2.99;94.45;148417.27;1679861;83;21098;-61
2021/12/05 04:43:14;;;;;;;40.80;20.88;;;;;;;2.93;94.37;148401.75;1679473;83;21182;-61
2021/12/05 04:45:42;;;;;;;39.08;20.15;;;;;;;2.87;94.31;148387.55;1666099;83;21195;-61
2021/12/05 04:48:09;;;;;;;39.00;20.32;;;;;;;2.78;94.42;148365.66;1638836;85;21154;-62
2021/12/05 04:50:39;;;;;;;37.65;19.82;;;;;;;2.71;94.65;148347.56;1648520;85;21090;-62
2021/12/05 04:53:06;;;;;;;33.50;18.48;;;;;;;2.70;95.23;148345.00;1647690;85;21088;-63
2021/12/05 04:55:33;;;;;;;34.83;18.05;;;;;;;2.71;95.62;148347.56;1670473;84;21035;-61
2021/12/05 04:58:04;;;;;;;39.25;18.55;;;;;;;2.74;95.90;148355.31;1668366;84;21150;-62
2021/12/05 05:00:39;;;;;;;52.98;21.45;;;;;;;2.72;95.90;148350.16;1668111;84;21030;-62
2021/12/05 05:03:06;;;;;;;78.07;22.22;;;;;;;2.71;96.02;148347.56;1668350;84;21110;-63
2021/12/05 05:05:32;;;;;;;44.80;19.82;;;;;;;2.70;95.91;148345.00;1665565;84;21036;-63
2021/12/05 05:07:59;;;;;;;36.53;19.70;;;;;;;2.70;96.02;148345.00;1665304;84;21262;-62
2021/12/05 05:10:29;;;;;;;41.37;20.17;;;;;;;2.68;95.87;148339.84;1664424;84;21570;-62
2021/12/05 05:12:57;;;;;;;39.53;19.82;;;;;;;2.61;95.98;148321.80;1665657;84;21142;-62
2021/12/05 05:15:26;;;;;;;40.52;19.75;;;;;;;2.60;96.36;148319.22;1665402;84;21346;-62
2021/12/05 05:17:54;;;;;;;48.80;21.10;;;;;;;2.62;96.61;148325.64;1669525;84;21474;-62
2021/12/05 05:20:26;;;;;;;49.48;21.87;;;;;;;2.66;96.70;148334.69;1665329;84;21543;-62
2021/12/05 05:30:50;;;;;;;39.00;20.25;;;;;;;2.70;96.36;148345.00;1638894;84;21123;-62
2021/12/05 05:44:14;;;;;;;44.48;21.23;;;;;;;2.89;97.98;148392.75;1666273;84;21120;-63
2021/12/05 05:46:38;;;;;;;39.70;19.48;;;;;;;2.97;98.40;148412.06;1662327;84;21158;-63
2021/12/05 05:49:14;;;;;;;34.15;19.52;;;;;;;3.09;98.72;148441.73;1674570;84;21129;-63
2021/12/05 05:51:29;;;;;;;27.58;15.78;;;;;;;3.21;98.70;148471.47;1677937;84;21558;-63
2021/12/05 05:53:55;;;;;;;30.43;15.65;;;;;;;3.32;98.84;148499.81;1681249;83;21674;-62
2021/12/05 05:56:26;;;;;;;23.75;13.93;;;;;;;3.42;98.73;148524.34;1681771;83;21158;-62
2021/12/05 05:58:57;;;;;;;27.10;13.62;;;;;;;3.50;98.55;148544.97;1678970;84;21419;-62
2021/12/05 06:04:06;;;;;;;27.17;14.13;;;;;;;3.66;98.54;148585.03;1682928;84;21536;-62
2021/12/05 06:06:32;;;;;;;23.92;14.33;;;;;;;3.80;98.76;148619.88;1681699;83;21461;-62
2021/12/05 06:09:01;;;;;;;35.15;15.53;;;;;;;3.94;98.68;148654.73;1679798;84;21492;-62
2021/12/05 06:11:28;;;;;;;23.57;13.25;;;;;;;4.10;98.72;148693.48;1679608;84;21478;-62
2021/12/05 06:13:55;;;;;;;21.97;12.85;;;;;;;4.24;98.36;148728.34;1703418;82;21153;-62
2021/12/05 06:16:22;;;;;;;23.25;13.70;;;;;;;4.36;98.18;148758.05;1669999;84;21144;-62
2021/12/05 06:18:49;;;;;;;22.32;13.32;;;;;;;4.44;97.67;148778.69;1701331;82;21042;-62
2021/12/05 06:21:16;;;;;;;19.75;12.03;;;;;;;4.50;97.30;148794.17;1702058;82;21015;-62
2021/12/05 06:23:42;;;;;;;20.65;12.63;;;;;;;4.58;96.99;148813.56;1704013;82;20993;-62
2021/12/05 06:26:13;;;;;;;20.15;12.73;;;;;;;4.64;96.67;148827.78;1664981;84;21136;-63
2021/12/05 06:28:44;;;;;;;22.17;13.15;;;;;;;4.69;96.47;148840.69;1679548;84;21103;-63
2021/12/05 06:31:43;;;;;;;23.92;13.38;;;;;;;4.76;96.36;148858.81;1678774;83;21119;-62
2021/12/05 06:47:23;;;;;;;23.32;13.50;;;;;;;5.23;95.09;148976.37;1679557;84;21682;-63
2021/12/05 06:49:48;;;;;;;23.10;14.38;;;;;;;5.29;94.58;148991.86;1682793;84;21078;-63
2021/12/05 06:52:15;;;;;;;22.98;13.08;;;;;;;5.36;94.42;149008.67;1680950;84;21139;-64
2021/12/05 06:54:41;;;;;;;20.17;12.80;;;;;;;5.45;94.10;149031.97;1682974;84;21081;-63
2021/12/05 06:57:08;;;;;;;19.70;11.45;;;;;;;5.51;93.80;149046.16;1680699;84;21083;-62
2021/12/05 06:59:38;;;;;;;21.05;11.88;;;;;;;5.62;93.34;149072.03;1679742;84;21131;-63
2021/12/05 07:02:07;;;;;;;19.02;11.45;;;;;;;5.68;92.98;149088.84;1684165;84;21073;-62
2021/12/05 07:07:22;;;;;;;23.12;13.20;;;;;;;5.76;92.09;149108.25;1682018;84;22318;-60
2021/12/05 07:09:47;;;;;;;23.20;13.48;;;;;;;5.77;91.82;149109.52;1681235;83;21076;-59
2021/12/05 07:14:49;;;;;;;21.10;12.80;;;;;;;5.78;91.44;149112.11;1683389;84;21048;-60
2021/12/05 07:22:23;;;;;;;21.62;13.72;;;;;;;5.89;90.77;149140.58;1684864;84;21141;-60
2021/12/05 07:24:51;;;;;;;24.50;12.82;;;;;;;5.89;90.77;149140.58;1683150;84;21111;-58
2021/12/05 07:41:14;;;;;;;10.15;5.97;;;;;;;6.08;88.30;149187.14;1682879;84;21655;-58
2021/12/05 07:43:33;;;;;;;8.53;5.33;;;;;;;6.22;87.19;149222.09;1679951;84;21153;-58
2021/12/05 07:46:05;;;;;;;7.17;4.75;;;;;;;6.30;85.74;149242.78;1682271;84;21461;-60
2021/12/05 07:48:33;;;;;;;7.53;4.75;;;;;;;6.34;85.16;149251.84;1682276;83;21001;-60
2021/12/05 07:53:54;;;;;;;9.85;5.12;;;;;;;6.51;84.13;149294.53;1667812;84;21068;-59
2021/12/05 07:56:33;;;;;;;8.55;4.47;;;;;;;6.63;83.44;149324.28;1678161;83;21127;-59
2021/12/05 08:15:16;;;;;;;7.62;4.37;;;;;;;7.08;79.83;149436.89;1680823;83;21106;-59
2021/12/05 08:17:41;;;;;;;8.73;4.83;;;;;;;7.15;79.27;149456.25;1680384;83;21489;-60
2021/12/05 08:20:11;;;;;;;10.10;5.30;;;;;;;7.22;78.95;149471.83;1682051;83;21107;-59
2021/12/05 08:22:39;;;;;;;8.83;4.60;;;;;;;7.26;78.60;149482.17;1696567;82;21087;-58
2021/12/05 08:25:11;;;;;;;8.43;5.37;;;;;;;7.26;78.49;149482.17;1699984;83;21303;-61
2021/12/05 08:27:40;;;;;;;7.10;4.58;;;;;;;7.24;78.70;149477.00;1678090;84;21113;-59
2021/12/05 08:30:15;;;;;;;7.10;4.35;;;;;;;7.25;79.04;149479.59;1701052;82;21057;-60
2021/12/05 08:43:11;;;;;;;8.90;4.97;;;;;;;7.32;79.69;149497.69;1700783;82;21080;-60
2021/12/05 09:23:55;;;;;;;6.75;4.08;;;;;;;7.41;80.15;149521.03;1679606;84;21639;-61
2021/12/05 09:31:26;;;;;;;5.83;3.80;;;;;;;7.45;79.95;149531.38;1699377;83;21410;-59
2021/12/05 10:01:23;;;;;;;6.83;4.20;;;;;;;7.71;80.47;149596.11;1639249;86;21528;-60
2021/12/05 10:11:49;;;;;;;5.92;4.00;;;;;;;7.67;80.54;149585.75;1666305;84;21618;-60
2021/12/05 10:14:21;;;;;;;7.03;4.20;;;;;;;7.71;80.78;149596.11;1670292;84;21094;-59
2021/12/05 10:17:06;;;;;;;7.65;4.33;;;;;;;7.74;81.17;149603.86;1661213;84;21071;-59
2021/12/05 10:36:05;;;;;;;10.20;4.30;;;;;;;7.89;83.05;149640.14;1665925;83;21152;-63
2021/12/05 10:38:52;;;;;;;7.22;3.98;;;;;;;7.93;83.20;149650.50;1670519;84;21109;-60
2021/12/05 10:44:02;;;;;;;8.60;4.62;;;;;;;7.99;83.14;149664.75;1662131;84;20977;-62
2021/12/05 10:46:29;;;;;;;10.30;3.85;;;;;;;8.02;83.36;149672.52;1668035;84;21780;-64
2021/12/05 10:49:07;;;;;;;6.15;3.37;;;;;;;8.02;83.74;149673.80;1669197;84;21161;-63
2021/12/05 10:51:55;;;;;;;5.60;3.50;;;;;;;8.03;84.18;149676.38;1699160;82;21096;-62
2021/12/05 10:54:22;;;;;;;6.08;3.67;;;;;;;8.04;84.78;149677.69;1700387;82;21087;-63
2021/12/05 10:56:54;;;;;;;7.60;3.80;;;;;;;8.05;85.22;149678.97;1698499;82;21594;-64
2021/12/05 10:59:36;;;;;;;6.25;3.83;;;;;;;8.02;85.37;149673.80;1665520;84;21146;-62
2021/12/05 11:02:06;;;;;;;7.22;3.52;;;;;;;7.98;85.77;149663.44;1707869;83;21873;-63
2021/12/05 11:04:40;;;;;;;7.30;3.87;;;;;;;7.97;86.12;149659.58;1667182;84;21103;-63
2021/12/05 11:07:19;;;;;;;7.45;3.37;;;;;;;7.95;86.55;149655.67;1678537;84;21330;-63
2021/12/05 11:09:52;;;;;;;6.25;3.70;;;;;;;7.91;86.88;149645.31;1676266;84;21080;-62
2021/12/05 11:12:31;;;;;;;6.83;4.35;;;;;;;7.85;87.46;149629.80;1681970;84;21653;-62
2021/12/05 11:15:06;;;;;;;6.45;4.20;;;;;;;7.81;87.80;149619.39;1677786;84;21156;-62
2021/12/05 11:17:37;;;;;;;7.97;4.37;;;;;;;7.74;88.32;149603.86;1676112;84;21095;-65
2021/12/05 11:20:09;;;;;;;8.43;4.00;;;;;;;7.71;88.68;149596.11;1676629;84;21089;-63
2021/12/05 11:22:39;;;;;;;6.92;4.10;;;;;;;7.66;89.11;149581.84;1698191;82;21120;-63
2021/12/05 11:25:20;;;;;;;5.65;3.85;;;;;;;7.57;89.64;149559.83;1700043;82;21138;-63
2021/12/05 11:27:53;;;;;;;7.35;4.65;;;;;;;7.51;90.41;149545.58;1698884;82;21378;-64
2021/12/05 11:30:34;;;;;;;9.10;4.53;;;;;;;7.48;90.91;149536.55;1662916;84;21166;-64
2021/12/05 11:33:07;;;;;;;8.83;5.08;;;;;;;7.46;91.68;149532.64;1661615;84;21095;-62
2021/12/05 11:35:42;;;;;;;5.25;3.62;;;;;;;7.51;92.34;149544.31;1658335;84;21723;-64
2021/12/05 11:38:20;;;;;;;7.35;3.90;;;;;;;7.55;92.45;149555.97;1659421;84;21341;-63
2021/12/05 11:40:55;;;;;;;5.70;3.75;;;;;;;7.61;92.52;149570.19;1683854;83;21826;-63
2021/12/05 11:43:39;;;;;;;5.30;3.65;;;;;;;7.66;92.50;149583.17;1679107;83;21120;-61
2021/12/05 11:46:16;;;;;;;9.10;3.80;;;;;;;7.70;92.69;149593.52;1678772;83;21092;-63
2021/12/05 11:49:08;;;;;;;6.60;3.72;;;;;;;7.74;92.85;149602.59;1669005;84;21051;-63
2021/12/05 11:51:52;;;;;;;5.95;3.60;;;;;;;7.78;93.11;149611.62;1654506;85;21162;-63
2021/12/05 11:54:33;;;;;;;6.97;4.05;;;;;;;7.79;92.91;149614.22;1655459;85;21131;-63
2021/12/05 11:57:11;;;;;;;4.97;3.30;;;;;;;7.76;93.27;149607.78;1653401;85;21010;-63
2021/12/05 11:59:44;;;;;;;6.37;3.62;;;;;;;7.72;93.16;149598.69;1655394;85;21133;-63
2021/12/05 12:02:21;;;;;;;6.42;4.15;;;;;;;7.71;93.41;149596.11;1657442;85;21552;-64
2021/12/05 12:05:00;;;;;;;7.17;4.62;;;;;;;7.71;93.51;149594.78;1644316;86;21173;-64
2021/12/05 12:07:44;;;;;;;6.12;3.77;;;;;;;7.69;93.80;149590.94;1653442;85;21091;-63
2021/12/05 12:10:16;;;;;;;6.42;3.92;;;;;;;7.69;93.94;149590.94;1650304;85;21137;-63
2021/12/05 12:12:49;;;;;;;6.67;4.35;;;;;;;7.69;94.03;149590.94;1649668;85;20970;-63
2021/12/05 12:15:16;;;;;;;5.72;3.75;;;;;;;7.70;94.07;149593.52;1648947;86;21111;-64
2021/12/05 12:17:44;;;;;;;6.20;3.60;;;;;;;7.65;93.83;149580.58;1649514;86;21099;-63
2021/12/05 12:20:12;;;;;;;6.85;3.85;;;;;;;7.60;94.02;149567.59;1647086;85;21165;-62
2021/12/05 12:22:39;;;;;;;6.85;4.00;;;;;;;7.56;94.08;149557.25;1652153;85;21613;-65
2021/12/05 12:25:13;;;;;;;7.53;3.80;;;;;;;7.53;94.56;149550.80;1674875;84;21383;-64
2021/12/05 12:27:46;;;;;;;4.75;3.50;;;;;;;7.57;94.78;149559.83;1650496;86;21080;-64
2021/12/05 12:30:14;;;;;;;6.55;4.00;;;;;;;7.59;94.60;149566.33;1651001;85;21135;-64
2021/12/05 12:32:46;;;;;;;5.72;4.12;;;;;;;7.62;94.72;149571.50;1635784;86;21066;-65
2021/12/05 12:35:17;;;;;;;7.17;3.85;;;;;;;7.63;94.68;149575.41;1649369;85;21101;-63
2021/12/05 12:38:08;;;;;;;6.35;3.90;;;;;;;7.65;94.53;149580.58;1648289;85;21029;-65
2021/12/05 12:40:49;;;;;;;6.67;4.17;;;;;;;7.69;94.26;149590.94;1645067;85;21520;-63
2021/12/05 12:43:42;;;;;;;6.25;3.90;;;;;;;7.71;94.11;149596.11;1652502;85;21826;-63
2021/12/05 12:46:23;;;;;;;5.42;3.72;;;;;;;7.75;93.86;149605.19;1639192;86;21126;-63
2021/12/05 12:49:00;;;;;;;6.80;4.17;;;;;;;7.75;93.76;149605.19;1669520;84;21092;-62
2021/12/05 12:51:37;;;;;;;8.55;4.30;;;;;;;7.79;93.96;149614.22;1681306;84;21551;-63
2021/12/05 12:54:11;;;;;;;4.67;3.45;;;;;;;7.79;94.09;149615.53;1682857;84;22479;-64
2021/12/05 12:56:40;;;;;;;7.15;3.80;;;;;;;7.78;94.40;149611.62;1680978;84;21075;-65
2021/12/05 12:59:11;;;;;;;5.65;3.58;;;;;;;7.79;94.50;149615.53;1681415;84;21915;-63
2021/12/05 13:04:37;;;;;;;5.58;4.03;;;;;;;7.83;95.04;149624.56;1681720;84;21068;-63
2021/12/05 13:07:22;;;;;;;6.67;4.10;;;;;;;7.81;95.12;149619.39;1684578;83;21095;-62
2021/12/05 13:10:09;;;;;;;5.87;3.98;;;;;;;7.81;95.34;149619.39;1658726;84;21096;-63
2021/12/05 13:12:50;;;;;;;5.80;3.70;;;;;;;7.82;95.38;149621.98;1655176;84;21371;-64
2021/12/05 13:15:32;;;;;;;5.45;4.00;;;;;;;7.85;95.64;149629.80;1665643;84;21126;-62
2021/12/05 13:18:07;;;;;;;6.65;4.83;;;;;;;7.87;95.68;149636.23;1693036;83;21051;-63
2021/12/05 13:20:53;;;;;;;;;;;;;;;7.91;95.73;149645.31;1697708;83;21091;-63
2021/12/05 13:23:31;;;;;;;6.00;4.22;;;;;;;7.92;95.24;149647.91;1693381;83;20572;-63
2021/12/05 13:26:30;;;;;;;6.00;4.00;;;;;;;7.91;95.18;149645.31;1691596;83;21258;-62
2021/12/05 13:29:23;;;;;;;7.40;3.70;;;;;;;7.95;95.08;149655.67;1694598;83;21114;-63
2021/12/05 13:32:12;;;;;;;6.67;3.90;;;;;;;7.96;94.72;149658.27;1694530;83;21087;-62
2021/12/05 13:34:46;;;;;;;6.60;3.58;;;;;;;7.97;94.64;149659.58;1674086;84;21166;-62
2021/12/05 13:37:21;;;;;;;7.03;3.70;;;;;;;7.95;94.78;149655.67;1657595;84;21070;-62
2021/12/05 13:40:11;;;;;;;7.42;4.33;;;;;;;7.94;95.08;149653.08;1659275;84;21167;-63
2021/12/05 13:42:50;;;;;;;10.95;4.70;;;;;;;7.94;95.26;149653.08;1665899;84;21090;-65
2021/12/05 13:45:31;;;;;;;4.97;3.35;;;;;;;7.95;95.60;149655.67;1679500;84;21073;-63
2021/12/05 13:48:07;;;;;;;6.60;3.98;;;;;;;7.98;95.52;149663.44;1681661;84;21154;-61
2021/12/05 13:50:48;;;;;;;6.05;3.70;;;;;;;7.98;95.69;149663.44;1655207;85;21705;-62
2021/12/05 13:53:22;;;;;;;8.00;3.42;;;;;;;7.98;95.58;149663.44;1654217;85;21154;-64
2021/12/05 13:56:02;;;;;;;5.72;3.58;;;;;;;7.91;95.43;149645.31;1653452;85;21012;-61
2021/12/05 13:58:41;;;;;;;8.43;4.22;;;;;;;7.88;95.75;149637.56;1653650;85;21116;-63
2021/12/05 14:01:14;;;;;;;8.43;3.67;;;;;;;7.87;96.01;149634.97;1653644;85;21180;-63
2021/12/05 14:03:59;;;;;;;4.80;3.25;;;;;;;7.89;96.42;149641.41;1654814;85;21092;-64
2021/12/05 14:06:58;;;;;;;7.15;3.77;;;;;;;7.94;96.52;149653.08;1658965;85;21132;-66
2021/12/05 14:09:43;;;;;;;5.75;3.95;;;;;;;7.91;96.41;149645.31;1648470;86;21127;-63
2021/12/05 14:12:24;;;;;;;6.70;4.12;;;;;;;7.87;97.07;149636.23;1646604;86;21570;-63
2021/12/05 14:14:52;;;;;;;6.70;3.85;;;;;;;7.86;97.39;149633.66;1650292;86;21516;-63
2021/12/05 14:17:26;;;;;;;3.67;3.00;;;;;;;7.89;98.07;149640.14;1657241;85;21122;-63
2021/12/05 14:20:06;;;;;;;6.23;4.03;;;;;;;7.91;98.51;149645.31;1631550;86;21806;-64
2021/12/05 14:22:34;;;;;;;5.60;4.00;;;;;;;7.91;98.51;149645.31;1626812;86;22718;-63
2021/12/05 14:25:06;;;;;;;7.65;4.42;;;;;;;7.93;98.25;149649.19;1630679;86;21097;-64
2021/12/05 14:27:36;;;;;;;8.53;4.62;;;;;;;7.86;98.07;149633.66;1656809;85;21138;-64
2021/12/05 14:30:07;;;;;;;7.12;4.10;;;;;;;7.84;98.62;149627.16;1627951;87;21046;-64
2021/12/05 14:32:38;;;;;;;4.55;3.60;;;;;;;7.86;98.97;149633.66;1628619;86;21112;-63
2021/12/05 14:35:15;;;;;;;6.75;3.72;;;;;;;7.82;99.19;149623.30;1627733;86;21534;-63
2021/12/05 14:37:43;;;;;;;6.65;3.90;;;;;;;7.77;99.49;149609.05;1653448;85;21057;-64
2021/12/05 14:40:18;;;;;;;11.05;4.25;;;;;;;7.70;99.86;149593.52;1652760;85;21089;-64
2021/12/05 14:42:47;;;;;;;7.12;4.42;;;;;;;7.68;100.00;149587.03;1656054;85;21035;-64
2021/12/05 14:45:18;;;;;;;8.00;4.58;;;;;;;7.64;100.00;149578.00;1656508;85;21890;-64
2021/12/05 14:47:46;;;;;;;5.95;3.80;;;;;;;7.61;100.00;149570.19;1650149;85;21123;-64
2021/12/05 14:50:22;;;;;;;5.12;3.60;;;;;;;7.63;100.00;149575.41;1672815;84;21153;-64
2021/12/05 14:52:55;;;;;;;6.87;3.85;;;;;;;7.62;100.00;149572.77;1681944;84;21017;-60
2021/12/05 14:55:24;;;;;;;5.78;3.25;;;;;;;7.55;100.00;149555.97;1684028;83;21481;-61
2021/12/05 14:57:55;;;;;;;4.40;3.33;;;;;;;7.51;100.00;149544.31;1682732;84;21840;-60
2021/12/05 15:00:36;;;;;;;5.03;3.67;;;;;;;7.45;100.00;149530.06;1679984;83;21639;-60
2021/12/05 15:03:06;;;;;;;4.87;3.72;;;;;;;7.38;100.00;149513.22;1685927;83;21186;-59
2021/12/05 15:05:34;;;;;;;4.75;3.10;;;;;;;7.42;100.00;149522.30;1682117;83;21435;-60
2021/12/05 15:08:07;;;;;;;4.95;3.10;;;;;;;7.47;100.00;149535.22;1682058;83;21474;-64
2021/12/05 15:10:34;;;;;;;4.85;2.62;;;;;;;7.47;100.00;149535.22;1682556;83;21126;-63
2021/12/05 15:13:01;;;;;;;4.33;2.80;;;;;;;7.46;100.00;149532.64;1682423;84;21072;-63
2021/12/05 15:15:28;;;;;;;5.78;3.05;;;;;;;7.41;100.00;149521.03;1684224;83;21120;-63
2021/12/05 15:17:55;;;;;;;4.62;2.80;;;;;;;7.39;100.00;149514.53;1686429;83;21072;-63
2021/12/05 15:20:27;;;;;;;6.20;3.15;;;;;;;7.39;100.00;149515.80;1684324;83;21154;-65
2021/12/05 15:23:06;;;;;;;4.62;3.17;;;;;;;7.39;100.00;149515.80;1685328;83;21184;-65
2021/12/05 15:25:35;;;;;;;5.62;3.55;;;;;;;7.39;100.00;149514.53;1681860;83;21042;-64
2021/12/05 15:28:02;;;;;;;5.20;3.40;;;;;;;7.40;100.00;149518.39;1682279;83;21100;-62
2021/12/05 15:30:38;;;;;;;6.03;3.08;;;;;;;7.39;100.00;149514.53;1680958;84;21025;-63
2021/12/05 15:33:07;;;;;;;;;;;;;;;7.36;100.00;149506.78;1684258;83;21028;-63
2021/12/05 15:35:35;;;;;;;4.15;2.42;;;;;;;7.32;100.00;149497.69;1682161;84;21153;-62
2021/12/05 15:38:08;;;;;;;6.03;3.20;;;;;;;7.31;100.00;149496.42;1685531;83;21044;-63
2021/12/05 15:40:37;;;;;;;6.25;3.10;;;;;;;7.38;100.00;149511.95;1681761;83;21075;-63
2021/12/05 15:43:11;;;;;;;4.53;2.72;;;;;;;7.52;100.00;149546.91;1682275;83;21443;-63
2021/12/05 15:45:39;;;;;;;4.45;3.02;;;;;;;7.58;100.00;149563.73;1682892;83;21082;-63
2021/12/05 15:48:05;;;;;;;5.53;3.40;;;;;;;7.58;100.00;149563.73;1682769;83;21105;-63
2021/12/05 15:50:37;;;;;;;6.50;3.40;;;;;;;7.59;100.00;149565.00;1682946;84;21044;-64
2021/12/05 15:53:11;;;;;;;5.75;3.60;;;;;;;7.64;100.00;149578.00;1682729;84;21084;-63
2021/12/05 15:55:44;;;;;;;3.83;2.90;;;;;;;7.64;100.00;149578.00;1685378;83;21571;-63
2021/12/05 15:58:30;;;;;;;5.90;2.50;;;;;;;7.62;100.00;149571.50;1679173;84;21081;-64
2021/12/05 16:01:13;;;;;;;3.95;2.55;;;;;;;7.57;100.00;149559.83;1681109;84;21482;-66
2021/12/05 16:03:46;;;;;;;5.92;2.47;;;;;;;7.57;100.00;149559.83;1685306;84;21147;-64
2021/12/05 16:06:15;;;;;;;4.00;2.30;;;;;;;7.64;100.00;149578.00;1681957;83;21087;-62
2021/12/05 16:08:44;;;;;;;3.98;2.17;;;;;;;7.71;100.00;149596.11;1681631;84;21088;-64
2021/12/05 16:11:15;;;;;;;4.37;2.08;;;;;;;7.70;100.00;149593.52;1682803;84;21134;-62
2021/12/05 16:13:45;;;;;;;3.10;2.00;;;;;;;7.71;100.00;149596.11;1682649;84;21079;-63
2021/12/05 16:16:16;;;;;;;2.42;1.95;;;;;;;7.72;100.00;149598.69;1680858;84;21012;-63
2021/12/05 16:18:48;;;;;;;4.33;2.02;;;;;;;7.78;100.00;149611.62;1680783;84;21152;-63
2021/12/05 16:21:27;;;;;;;4.90;2.52;;;;;;;7.86;100.00;149632.38;1683309;84;21028;-61
2021/12/05 16:24:13;;;;;;;2.83;1.90;;;;;;;7.87;100.00;149634.97;1681839;84;21602;-64
2021/12/05 16:26:42;;;;;;;7.08;2.35;;;;;;;7.86;100.00;149632.38;1681771;84;21108;-62
2021/12/05 16:29:19;;;;;;;6.37;1.90;;;;;;;7.83;100.00;149624.56;1681674;83;21084;-63
2021/12/05 16:31:52;;;;;;;5.35;2.33;;;;;;;7.82;100.00;149621.98;1682342;84;21134;-63
2021/12/05 16:34:20;;;;;;;3.85;2.42;;;;;;;7.84;100.00;149628.47;1682586;84;21149;-63
2021/12/05 16:37:02;;;;;;;3.30;2.00;;;;;;;7.84;100.00;149627.16;1681270;84;21141;-63
2021/12/05 16:39:44;;;;;;;3.37;2.00;;;;;;;7.85;100.00;149629.80;1682700;84;21910;-62
2021/12/05 16:42:20;;;;;;;4.62;2.08;;;;;;;7.91;100.00;149645.31;1681415;84;21077;-63
2021/12/05 16:44:54;;;;;;;6.00;2.08;;;;;;;7.95;100.00;149655.67;1683782;84;21133;-63
2021/12/05 16:47:24;;;;;;;4.75;2.00;;;;;;;7.96;100.00;149658.27;1680723;84;21071;-63